Terminal Aerodrome Forecast
Issued by NWS Salt Lake City, UT

Home | Current Version | Previous Version | Text Only | Print | Product List | Glossary On
Versions: 1 2 3 4 5 6 7 8 9 10 11 12 13 14 15 16 17 18 19
000
FTUS45 KSLC 272345
TAFCDC
TAF
KCDC 272345Z 2800/2824 33003KT 2SM -SHSN BR OVC008
      TEMPO 2800/2801 1SM -SHSN BR VV007
     FM280100 02010KT P6SM VCSH BKN020 BKN035
     FM280200 02010G18KT 4SM -SN BR BKN012 OVC020
     FM280700 01010G17KT P6SM BKN025
     FM281300 01015G22KT P6SM SCT040=

USA.gov is the U.S. government's official web portal to all federal, state and local government web resources and services.